Time;durP1;ratioP1;P1;durP2;ratioP2;P2;SDS_P1;SDS_P2;PMS_P1;PMS_P2;Temp;Humidity;BMP_temperature;BMP_pressure;BME280_temperature;BME280_humidity;BME280_pressure;Samples;Min_cycle;Max_cycle;Signal;HPM_P1;HPM_P2
2021/11/13 00:00:11;;;;;;;41.55;24.13;;;5.30;99.90;;;;;;5033546;28;20053;-94
2021/11/13 00:02:37;;;;;;;44.30;26.50;;;5.40;99.90;;;;;;5016320;28;20108;-94
2021/11/13 00:05:05;;;;;;;42.60;25.55;;;5.40;99.90;;;;;;5045286;28;20094;-94
2021/11/13 00:07:30;;;;;;;38.75;23.42;;;5.40;99.90;;;;;;5045428;28;20018;-93
2021/11/13 00:09:56;;;;;;;42.63;23.77;;;5.40;99.90;;;;;;5043650;28;20041;-95
2021/11/13 00:12:22;;;;;;;42.45;25.17;;;5.50;99.90;;;;;;5031467;28;20029;-94
2021/11/13 00:14:49;;;;;;;41.83;23.60;;;5.40;99.90;;;;;;5052445;28;20036;-95
2021/11/13 00:17:16;;;;;;;80.38;50.95;;;5.50;99.90;;;;;;5045938;28;20098;-92
2021/11/13 00:19:44;;;;;;;43.85;28.40;;;5.50;99.90;;;;;;5027773;28;20082;-95
2021/11/13 00:22:12;;;;;;;38.53;22.83;;;5.60;99.90;;;;;;5044878;28;20047;-94
2021/11/13 00:24:38;;;;;;;39.10;23.25;;;5.50;99.90;;;;;;5049988;28;20413;-96
2021/11/13 00:27:05;;;;;;;38.92;23.80;;;5.50;99.90;;;;;;5035263;28;20055;-94
2021/11/13 00:29:32;;;;;;;44.55;23.52;;;5.50;99.90;;;;;;5052580;28;20120;-94
2021/11/13 00:31:58;;;;;;;44.65;23.90;;;5.20;99.90;;;;;;5045819;28;20124;-93
2021/11/13 00:34:24;;;;;;;50.30;24.13;;;5.20;99.90;;;;;;5052002;28;20086;-94
2021/11/13 00:36:52;;;;;;;46.53;25.65;;;5.10;99.90;;;;;;5045560;28;20469;-95
2021/11/13 00:39:19;;;;;;;46.03;24.17;;;5.20;99.90;;;;;;5033660;28;20029;-95
2021/11/13 00:41:47;;;;;;;47.17;24.58;;;5.40;99.90;;;;;;5056406;28;20028;-94
2021/11/13 00:44:15;;;;;;;47.03;23.70;;;5.40;99.90;;;;;;5029847;28;20029;-95
2021/11/13 00:46:41;;;;;;;39.25;24.13;;;5.30;99.90;;;;;;5040148;28;20033;-95
2021/11/13 00:49:09;;;;;;;48.05;23.90;;;5.30;99.90;;;;;;5031999;28;20021;-94
2021/11/13 00:51:35;;;;;;;49.58;23.65;;;5.30;99.90;;;;;;5049058;28;20061;-94
2021/11/13 00:54:03;;;;;;;53.35;23.40;;;5.20;99.90;;;;;;5052023;28;20078;-93
2021/11/13 00:56:29;;;;;;;43.40;22.70;;;5.00;99.90;;;;;;5036201;28;20394;-94
2021/11/13 00:58:55;;;;;;;54.33;22.00;;;4.90;99.90;;;;;;5035927;28;20025;-94
2021/11/13 01:01:20;;;;;;;46.13;23.42;;;5.10;99.90;;;;;;5023689;28;20037;-93
2021/11/13 01:03:46;;;;;;;49.03;23.23;;;4.90;99.90;;;;;;5024648;28;20022;-94
2021/11/13 01:06:12;;;;;;;50.33;23.05;;;4.80;99.90;;;;;;5034745;28;20152;-94
2021/11/13 01:08:38;;;;;;;44.78;22.50;;;4.80;99.90;;;;;;5016370;28;20105;-94
2021/11/13 01:11:04;;;;;;;45.97;23.60;;;4.70;99.90;;;;;;5035250;28;20053;-94
2021/11/13 01:13:30;;;;;;;45.75;22.13;;;4.70;99.90;;;;;;5033609;28;20030;-94
2021/11/13 01:15:55;;;;;;;40.63;23.00;;;5.10;99.90;;;;;;5035005;28;20120;-94
2021/11/13 01:18:22;;;;;;;46.38;22.88;;;4.70;99.90;;;;;;5035900;28;20052;-94
2021/11/13 01:20:49;;;;;;;62.63;21.65;;;4.60;99.90;;;;;;5036000;28;20030;-94
2021/11/13 01:23:15;;;;;;;41.78;21.25;;;4.70;99.90;;;;;;5018534;28;20021;-94
2021/11/13 01:25:41;;;;;;;53.33;21.45;;;4.60;99.90;;;;;;5022104;28;20034;-94
2021/11/13 01:28:07;;;;;;;60.45;20.25;;;4.60;99.90;;;;;;4998580;28;20080;-94
2021/11/13 01:30:33;;;;;;;50.83;20.75;;;4.40;99.90;;;;;;5016313;28;20034;-94
2021/11/13 01:32:58;;;;;;;52.45;20.90;;;4.40;99.90;;;;;;5017283;28;20581;-94
2021/11/13 01:35:25;;;;;;;57.17;22.48;;;4.40;99.90;;;;;;5034674;28;20077;-94
2021/11/13 01:37:52;;;;;;;44.58;21.95;;;4.30;99.90;;;;;;5017438;28;20113;-94
2021/11/13 01:40:20;;;;;;;52.47;21.73;;;4.60;99.90;;;;;;5028081;28;20033;-86
2021/11/13 01:42:50;;;;;;;51.63;21.08;;;4.20;99.90;;;;;;5039457;28;20106;-95
2021/11/13 01:45:17;;;;;;;37.25;20.67;;;4.20;99.90;;;;;;5047135;28;20137;-96
2021/11/13 01:47:44;;;;;;;35.38;19.13;;;4.10;99.90;;;;;;5015703;28;20025;-96
2021/11/13 01:50:19;;;;;;;39.75;19.73;;;4.00;99.90;;;;;;5037352;28;20035;-95
2021/11/13 01:52:46;;;;;;;33.45;18.95;;;4.00;99.90;;;;;;5055266;28;20025;-95
2021/11/13 01:55:13;;;;;;;31.05;18.50;;;4.10;99.90;;;;;;5043619;28;20037;-95
2021/11/13 01:57:49;;;;;;;30.48;20.35;;;4.00;99.90;;;;;;5035324;28;20513;-95
2021/11/13 02:00:28;;;;;;;28.48;18.75;;;4.00;99.90;;;;;;5015470;28;20084;-95
2021/11/13 02:02:54;;;;;;;24.88;17.45;;;4.00;99.90;;;;;;5015341;28;20057;-94
2021/11/13 02:05:20;;;;;;;26.60;17.33;;;4.00;99.90;;;;;;4998285;28;20034;-95
2021/11/13 02:07:46;;;;;;;22.33;16.38;;;4.10;99.90;;;;;;4997904;28;20520;-95
2021/11/13 02:10:13;;;;;;;22.60;16.30;;;4.50;99.90;;;;;;5013846;28;20121;-95
2021/11/13 02:12:39;;;;;;;23.75;15.57;;;4.50;99.90;;;;;;5015932;28;20029;-95
2021/11/13 02:15:06;;;;;;;19.83;14.68;;;4.10;99.90;;;;;;4997513;28;20038;-95
2021/11/13 02:17:32;;;;;;;21.25;15.88;;;4.10;99.90;;;;;;5015105;28;20054;-93
2021/11/13 02:20:20;;;;;;;18.85;13.55;;;3.90;99.90;;;;;;5030220;28;20112;-94
2021/11/13 02:22:47;;;;;;;17.60;13.23;;;3.90;99.90;;;;;;5018953;28;20026;-93
2021/11/13 02:25:18;;;;;;;16.85;12.52;;;3.80;99.90;;;;;;5029624;28;20036;-93
2021/11/13 02:27:43;;;;;;;15.50;12.30;;;3.80;99.90;;;;;;5039067;28;20045;-93
2021/11/13 02:30:11;;;;;;;19.13;14.23;;;3.80;99.90;;;;;;5017309;28;20033;-93
2021/11/13 02:32:37;;;;;;;16.30;12.40;;;3.80;99.90;;;;;;5016816;28;20049;-93
2021/11/13 02:35:05;;;;;;;18.63;12.82;;;3.90;99.90;;;;;;5034483;28;20037;-93
2021/11/13 02:37:31;;;;;;;17.02;12.70;;;3.80;99.90;;;;;;5016743;28;20497;-93
2021/11/13 02:39:57;;;;;;;18.23;13.10;;;3.90;99.90;;;;;;5032643;28;20233;-93
2021/11/13 02:42:24;;;;;;;17.80;12.65;;;4.30;99.90;;;;;;5034690;28;20048;-93
2021/11/13 02:44:51;;;;;;;18.00;13.63;;;4.00;99.90;;;;;;5034720;28;20048;-94
2021/11/13 02:47:18;;;;;;;18.52;12.95;;;3.90;99.90;;;;;;4997159;28;20033;-93
2021/11/13 02:49:47;;;;;;;18.38;13.80;;;4.00;99.90;;;;;;5011634;28;20029;-93
2021/11/13 02:52:12;;;;;;;18.85;14.05;;;4.10;99.90;;;;;;5028272;28;20049;-94
2021/11/13 02:54:46;;;;;;;18.95;13.73;;;4.50;99.90;;;;;;5047239;28;20087;-93
2021/11/13 02:57:12;;;;;;;17.15;13.38;;;4.10;99.90;;;;;;5053323;28;20045;-93
2021/11/13 02:59:46;;;;;;;20.50;14.45;;;4.10;99.90;;;;;;5054420;28;20096;-93
2021/11/13 03:02:12;;;;;;;18.45;14.13;;;4.20;99.90;;;;;;5034511;28;20037;-93
2021/11/13 03:04:39;;;;;;;18.42;13.55;;;4.20;99.90;;;;;;5034402;28;20422;-93
2021/11/13 03:07:06;;;;;;;16.98;13.07;;;4.50;99.90;;;;;;5024279;28;20014;-93
2021/11/13 03:09:33;;;;;;;17.67;13.45;;;4.20;99.90;;;;;;5014125;28;20034;-93
2021/11/13 03:11:58;;;;;;;20.85;15.00;;;4.00;99.90;;;;;;5014219;28;20049;-93
2021/11/13 03:14:24;;;;;;;18.92;13.77;;;4.00;99.90;;;;;;4996931;28;20034;-92
2021/11/13 03:16:51;;;;;;;17.15;13.98;;;3.90;99.90;;;;;;4996617;28;20037;-93
2021/11/13 03:19:16;;;;;;;18.58;13.70;;;4.50;99.90;;;;;;5014467;28;20033;-93
2021/11/13 03:21:43;;;;;;;19.40;13.55;;;4.00;99.90;;;;;;5014758;28;20030;-94
2021/11/13 03:24:08;;;;;;;18.40;13.40;;;3.90;99.90;;;;;;5051459;28;20021;-93
2021/11/13 03:26:36;;;;;;;17.05;13.13;;;3.80;99.90;;;;;;5054092;28;20074;-93
2021/11/13 03:29:09;;;;;;;17.40;13.70;;;4.00;99.90;;;;;;5037297;28;20034;-93
2021/11/13 03:31:35;;;;;;;18.40;13.73;;;3.90;99.90;;;;;;5033913;28;20029;-93
2021/11/13 03:34:01;;;;;;;43.75;15.30;;;3.60;99.90;;;;;;5033796;28;20065;-93
2021/11/13 03:36:27;;;;;;;45.65;15.98;;;3.60;99.90;;;;;;5034609;28;20524;-93
2021/11/13 03:38:53;;;;;;;96.97;17.25;;;3.90;99.90;;;;;;5052924;28;20031;-93
2021/11/13 03:41:19;;;;;;;112.55;18.58;;;3.60;99.90;;;;;;5049116;28;20029;-93
2021/11/13 03:43:45;;;;;;;71.82;18.88;;;3.70;99.90;;;;;;5053441;28;20044;-94
2021/11/13 03:46:12;;;;;;;60.75;16.98;;;3.70;99.90;;;;;;5042294;28;20493;-93
2021/11/13 03:48:37;;;;;;;77.97;16.95;;;3.80;99.90;;;;;;5033769;28;20079;-94
2021/11/13 03:51:04;;;;;;;73.25;16.92;;;4.00;99.90;;;;;;5030995;28;20382;-93
2021/11/13 03:53:30;;;;;;;29.83;16.35;;;4.00;99.90;;;;;;4996856;28;20054;-94
2021/11/13 03:55:55;;;;;;;122.30;18.77;;;4.10;99.90;;;;;;5030307;28;20144;-93
2021/11/13 03:58:21;;;;;;;213.32;22.90;;;4.20;99.90;;;;;;5023411;28;20440;-93
2021/11/13 04:00:47;;;;;;;84.68;17.63;;;4.20;99.90;;;;;;5018031;28;20488;-94
2021/11/13 04:03:13;;;;;;;111.22;19.17;;;4.50;99.90;;;;;;5056742;28;20032;-93
2021/11/13 04:05:39;;;;;;;100.00;18.10;;;4.20;99.90;;;;;;5057415;28;20039;-93
2021/11/13 04:08:05;;;;;;;75.93;19.83;;;4.20;99.90;;;;;;5057268;28;20029;-94
2021/11/13 04:10:31;;;;;;;93.72;20.55;;;4.20;99.90;;;;;;5043072;28;20091;-94
2021/11/13 04:12:57;;;;;;;35.25;18.90;;;4.50;99.90;;;;;;5037442;28;20025;-93
2021/11/13 04:15:23;;;;;;;57.92;20.40;;;4.30;99.90;;;;;;5035797;28;20133;-94
2021/11/13 04:17:52;;;;;;;56.42;19.52;;;4.40;99.90;;;;;;5019666;28;20017;-93
2021/11/13 04:20:18;;;;;;;105.82;20.10;;;4.30;99.90;;;;;;5036406;28;20506;-93
2021/11/13 04:22:47;;;;;;;95.13;19.80;;;4.20;99.90;;;;;;5019519;28;20017;-92
2021/11/13 04:25:13;;;;;;;49.47;19.60;;;4.60;99.90;;;;;;5037175;28;20034;-93
2021/11/13 04:27:39;;;;;;;65.95;19.40;;;4.20;99.90;;;;;;5037368;28;20034;-93
2021/11/13 04:30:08;;;;;;;43.22;18.40;;;4.20;99.90;;;;;;5036838;28;20037;-93
2021/11/13 04:32:36;;;;;;;87.65;20.17;;;4.30;99.90;;;;;;5036687;28;20059;-93
2021/11/13 04:37:42;;;;;;;120.10;20.13;;;4.20;99.90;;;;;;5017215;28;20034;-93
2021/11/13 04:40:08;;;;;;;204.70;22.42;;;4.30;99.90;;;;;;5023126;28;20021;-92
2021/11/13 04:42:34;;;;;;;164.82;21.10;;;4.30;99.90;;;;;;5050453;28;20025;-93
2021/11/13 04:44:59;;;;;;;175.10;20.10;;;4.40;99.90;;;;;;5036619;28;20476;-93
2021/11/13 04:47:25;;;;;;;49.65;18.58;;;4.20;99.90;;;;;;5049247;28;20028;-93
2021/11/13 04:49:50;;;;;;;61.63;18.70;;;4.20;99.90;;;;;;5021567;28;20383;-93
2021/11/13 04:52:16;;;;;;;148.77;22.15;;;4.50;99.90;;;;;;5042152;28;20031;-93
2021/11/13 04:54:42;;;;;;;72.60;18.95;;;4.20;99.90;;;;;;5044221;28;20497;-93
2021/11/13 04:57:07;;;;;;;89.13;17.60;;;4.20;99.90;;;;;;5016736;28;20716;-93
2021/11/13 04:59:33;;;;;;;98.97;18.65;;;4.10;99.90;;;;;;5016617;28;20065;-93
2021/11/13 05:01:59;;;;;;;69.38;17.48;;;4.00;99.90;;;;;;5016682;28;20026;-93
2021/11/13 05:04:25;;;;;;;104.25;18.75;;;4.00;99.90;;;;;;5036699;28;20489;-93
2021/11/13 05:06:51;;;;;;;120.65;20.30;;;3.90;99.90;;;;;;5038365;28;20075;-93
2021/11/13 05:09:17;;;;;;;52.35;18.63;;;4.00;99.90;;;;;;5049904;28;20056;-93
2021/11/13 05:11:42;;;;;;;49.45;18.00;;;4.20;99.90;;;;;;5035409;28;20030;-93
2021/11/13 05:14:08;;;;;;;43.63;18.00;;;4.20;99.90;;;;;;5047060;28;20025;-93
2021/11/13 05:16:34;;;;;;;103.50;19.38;;;4.20;99.90;;;;;;5041178;28;20067;-93
2021/11/13 05:19:00;;;;;;;39.55;17.13;;;4.20;99.90;;;;;;5035849;28;20022;-93
2021/11/13 05:21:26;;;;;;;72.88;18.70;;;4.20;99.90;;;;;;5030962;28;20034;-93
2021/11/13 05:23:51;;;;;;;74.35;17.55;;;4.10;99.90;;;;;;5016218;28;20496;-92
2021/11/13 05:26:17;;;;;;;93.95;18.98;;;4.40;99.90;;;;;;5016260;28;20022;-92
2021/11/13 05:28:44;;;;;;;34.50;17.05;;;4.10;99.90;;;;;;5033917;28;20037;-93
2021/11/13 05:31:11;;;;;;;62.83;17.00;;;4.00;99.90;;;;;;5035290;28;20017;-92
2021/11/13 05:33:37;;;;;;;55.95;17.73;;;4.20;99.90;;;;;;5029224;28;20054;-92
2021/11/13 05:36:04;;;;;;;51.42;15.75;;;4.10;99.90;;;;;;5014655;28;20132;-93
2021/11/13 05:38:29;;;;;;;37.40;15.73;;;4.00;99.90;;;;;;4997680;28;20021;-93
2021/11/13 05:40:55;;;;;;;30.73;15.02;;;4.30;99.90;;;;;;4998019;28;20486;-92
2021/11/13 05:43:21;;;;;;;44.72;15.48;;;3.70;99.90;;;;;;5006043;28;20572;-92
2021/11/13 05:45:48;;;;;;;46.58;16.63;;;3.70;99.90;;;;;;5022875;28;20033;-93
2021/11/13 05:48:15;;;;;;;41.72;16.70;;;3.50;99.90;;;;;;5014613;28;20063;-94
2021/11/13 05:50:40;;;;;;;54.13;16.27;;;3.70;99.90;;;;;;5014960;28;20072;-94
2021/11/13 05:53:06;;;;;;;53.40;15.70;;;4.00;99.90;;;;;;5028740;28;20029;-93
2021/11/13 05:55:32;;;;;;;47.50;15.80;;;3.60;99.90;;;;;;5036405;28;20047;-93
2021/11/13 05:57:58;;;;;;;48.03;16.38;;;3.60;99.90;;;;;;5036335;28;20013;-93
2021/11/13 06:00:25;;;;;;;62.05;16.75;;;3.70;99.90;;;;;;5036216;28;20474;-94
2021/11/13 06:02:51;;;;;;;59.40;17.20;;;3.50;99.90;;;;;;5035414;28;20060;-94
2021/11/13 06:05:18;;;;;;;55.45;16.90;;;3.50;99.90;;;;;;5045996;28;20056;-94
2021/11/13 06:07:44;;;;;;;35.17;16.45;;;3.50;99.90;;;;;;5054278;28;20017;-93
2021/11/13 06:10:11;;;;;;;41.20;16.65;;;3.50;99.90;;;;;;5054066;28;20035;-94
2021/11/13 06:12:37;;;;;;;51.05;17.65;;;4.00;99.90;;;;;;5053938;28;20021;-93
2021/11/13 06:15:04;;;;;;;32.00;16.45;;;3.60;99.90;;;;;;5053898;28;20029;-94
2021/11/13 06:17:30;;;;;;;48.33;16.60;;;3.50;99.90;;;;;;5053512;28;20096;-94
2021/11/13 06:19:56;;;;;;;44.72;16.50;;;3.60;99.90;;;;;;5053041;28;20029;-93
2021/11/13 06:22:22;;;;;;;39.60;16.73;;;3.40;99.90;;;;;;5040255;28;20034;-92
2021/11/13 06:24:48;;;;;;;34.47;17.08;;;3.30;99.90;;;;;;5012321;28;20632;-94
2021/11/13 06:27:16;;;;;;;41.00;15.15;;;3.30;99.90;;;;;;5000813;28;20071;-93
2021/11/13 06:29:42;;;;;;;26.13;15.35;;;3.40;99.90;;;;;;5044105;28;20028;-91
2021/11/13 06:32:08;;;;;;;31.20;16.33;;;3.40;99.90;;;;;;4999674;28;1297983;-89
2021/11/13 06:34:34;;;;;;;31.95;14.98;;;3.40;99.90;;;;;;5054353;28;20128;-90
2021/11/13 06:37:00;;;;;;;23.63;15.20;;;3.60;99.90;;;;;;5045117;28;20061;-91
2021/11/13 06:39:25;;;;;;;20.83;13.95;;;3.50;99.90;;;;;;5030596;28;20104;-92
2021/11/13 06:41:51;;;;;;;19.92;13.40;;;3.40;99.90;;;;;;4997638;28;20072;-91
2021/11/13 06:44:17;;;;;;;20.63;14.60;;;3.40;99.90;;;;;;5050075;28;20531;-91
2021/11/13 06:46:44;;;;;;;18.23;13.30;;;3.30;99.90;;;;;;5036380;28;20404;-89
2021/11/13 06:49:09;;;;;;;19.55;13.30;;;3.60;99.90;;;;;;5030936;28;20027;-94
2021/11/13 06:51:35;;;;;;;20.88;14.48;;;3.60;99.90;;;;;;5037061;28;20516;-92
2021/11/13 06:54:01;;;;;;;21.38;13.57;;;3.30;99.90;;;;;;5052484;28;20017;-92
2021/11/13 06:56:26;;;;;;;17.25;12.50;;;3.30;99.90;;;;;;5034569;28;20128;-93
2021/11/13 06:58:52;;;;;;;18.10;12.73;;;3.20;99.90;;;;;;5034697;28;20552;-93
2021/11/13 07:01:18;;;;;;;20.85;13.40;;;3.30;99.90;;;;;;5053700;28;20397;-92
2021/11/13 07:03:44;;;;;;;20.95;13.60;;;3.20;99.90;;;;;;5050679;28;20078;-89
2021/11/13 07:06:10;;;;;;;16.90;12.90;;;3.20;99.90;;;;;;5049883;28;20033;-92
2021/11/13 07:08:36;;;;;;;17.17;12.68;;;3.20;99.90;;;;;;5051287;28;20036;-91
2021/11/13 07:11:01;;;;;;;16.58;13.15;;;3.30;99.90;;;;;;5028498;28;20021;-92
2021/11/13 07:13:29;;;;;;;18.80;12.98;;;3.50;99.90;;;;;;5035986;28;20116;-90
2021/11/13 07:15:55;;;;;;;17.60;12.85;;;3.50;99.90;;;;;;5043609;28;20034;-89
2021/11/13 07:18:21;;;;;;;18.88;12.80;;;3.50;99.90;;;;;;5029716;28;20029;-90
2021/11/13 07:20:56;;;;;;;18.75;13.63;;;3.40;99.90;;;;;;5014254;28;20088;-91
2021/11/13 07:23:22;;;;;;;18.83;13.32;;;3.50;99.90;;;;;;4996467;28;20022;-92
2021/11/13 07:25:49;;;;;;;16.88;12.52;;;3.40;99.90;;;;;;5030287;28;20032;-91
2021/11/13 07:28:18;;;;;;;14.50;11.10;;;3.50;99.90;;;;;;5010414;28;20112;-91
2021/11/13 07:30:45;;;;;;;15.60;12.52;;;4.00;99.90;;;;;;5053468;28;20446;-91
2021/11/13 07:33:13;;;;;;;15.40;12.15;;;3.60;99.90;;;;;;5049322;28;20128;-92
2021/11/13 07:35:42;;;;;;;18.08;13.23;;;3.70;99.90;;;;;;5056114;28;20032;-90
2021/11/13 07:38:08;;;;;;;16.40;12.60;;;3.80;99.90;;;;;;5057790;28;20021;-91
2021/11/13 07:40:34;;;;;;;15.02;12.07;;;3.90;99.90;;;;;;5057221;28;20059;-91
2021/11/13 07:43:00;;;;;;;16.63;11.85;;;4.10;99.90;;;;;;5050488;28;20545;-91
2021/11/13 07:45:28;;;;;;;14.82;11.18;;;4.40;99.90;;;;;;5053051;28;20057;-91
2021/11/13 07:47:53;;;;;;;13.98;10.88;;;4.70;99.90;;;;;;5040015;28;20017;-91
2021/11/13 07:50:19;;;;;;;13.32;10.60;;;4.80;99.90;;;;;;5039538;28;20494;-91
2021/11/13 07:52:46;;;;;;;13.73;10.88;;;4.90;99.90;;;;;;5041381;28;20486;-93
2021/11/13 07:55:13;;;;;;;13.35;9.75;;;5.00;99.90;;;;;;5037377;28;20091;-92
2021/11/13 07:57:39;;;;;;;15.73;11.20;;;5.00;99.90;;;;;;5040504;28;20096;-93
2021/11/13 08:00:07;;;;;;;46.97;29.25;;;5.10;99.90;;;;;;5038646;28;20064;-96
2021/11/13 08:02:34;;;;;;;17.65;12.98;;;5.20;99.90;;;;;;5057218;28;20044;-96
2021/11/13 08:05:00;;;;;;;15.85;11.52;;;5.10;99.90;;;;;;5050304;28;20029;-96
2021/11/13 08:07:26;;;;;;;16.90;12.82;;;5.20;99.90;;;;;;5051066;28;20025;-96
2021/11/13 08:09:52;;;;;;;26.30;18.90;;;5.30;99.90;;;;;;5050696;28;20036;-95
2021/11/13 08:12:18;;;;;;;16.17;12.80;;;5.40;99.90;;;;;;5050512;28;20030;-96
2021/11/13 08:14:43;;;;;;;14.63;11.88;;;5.40;99.90;;;;;;5056276;28;20036;-96
2021/11/13 08:17:09;;;;;;;14.15;11.15;;;5.30;99.90;;;;;;5031148;28;20029;-94
2021/11/13 08:19:34;;;;;;;13.02;10.60;;;5.30;99.90;;;;;;5050981;28;20029;-96
2021/11/13 08:22:00;;;;;;;15.95;11.57;;;5.60;99.90;;;;;;5049891;28;20037;-95
2021/11/13 08:24:26;;;;;;;14.07;11.50;;;5.30;99.90;;;;;;5029803;28;20030;-96
2021/11/13 08:26:51;;;;;;;12.63;11.05;;;5.40;99.90;;;;;;5030778;28;20508;-95
2021/11/13 08:29:17;;;;;;;13.85;10.73;;;5.30;99.90;;;;;;5051677;28;20029;-96
2021/11/13 08:31:43;;;;;;;14.30;10.95;;;5.60;99.90;;;;;;5050134;28;20029;-95
2021/11/13 08:34:09;;;;;;;13.13;10.95;;;5.30;99.90;;;;;;5049696;28;20071;-96
2021/11/13 08:36:34;;;;;;;12.98;11.23;;;5.20;99.90;;;;;;5050014;28;20490;-96
2021/11/13 08:39:03;;;;;;;14.63;11.90;;;5.20;99.90;;;;;;5052821;28;20075;-96
2021/11/13 08:41:28;;;;;;;15.80;11.75;;;5.20;99.90;;;;;;5052301;28;20057;-96
2021/11/13 08:43:54;;;;;;;14.63;11.73;;;5.40;99.90;;;;;;5030312;28;20028;-96
2021/11/13 08:46:20;;;;;;;15.02;11.80;;;5.30;99.90;;;;;;5030893;28;20052;-95
2021/11/13 08:48:46;;;;;;;18.42;13.60;;;5.50;99.90;;;;;;5031927;28;20397;-96
2021/11/13 08:51:12;;;;;;;15.52;11.65;;;6.20;99.90;;;;;;5031970;28;20032;-95
2021/11/13 08:53:38;;;;;;;14.75;12.30;;;5.70;99.90;;;;;;5037051;28;20033;-95
2021/11/13 08:56:05;;;;;;;16.23;12.65;;;6.20;99.90;;;;;;5030338;28;20065;-95
2021/11/13 08:58:30;;;;;;;17.17;14.02;;;5.90;99.90;;;;;;5032371;28;20029;-95
2021/11/13 09:01:02;;;;;;;18.15;13.35;;;6.00;99.90;;;;;;5026685;28;20512;-96
2021/11/13 09:03:33;;;;;;;17.45;12.38;;;6.00;99.90;;;;;;5013655;28;20156;-96
2021/11/13 09:06:00;;;;;;;15.55;11.88;;;6.30;99.90;;;;;;5016562;28;20109;-95
2021/11/13 09:08:26;;;;;;;15.40;13.00;;;6.60;99.90;;;;;;5050775;28;20021;-94
2021/11/13 09:10:53;;;;;;;22.25;17.33;;;8.70;99.90;;;;;;5027262;28;20036;-96
2021/11/13 09:13:21;;;;;;;15.32;12.27;;;10.20;99.90;;;;;;5030174;28;20041;-96
2021/11/13 09:15:48;;;;;;;14.27;11.98;;;9.80;99.90;;;;;;5048364;28;20040;-96
2021/11/13 09:18:14;;;;;;;14.38;11.35;;;10.00;99.90;;;;;;5049150;28;20029;-96
2021/11/13 09:20:41;;;;;;;12.38;10.20;;;14.40;99.90;;;;;;5054648;28;20035;-96
2021/11/13 09:23:10;;;;;;;11.63;10.00;;;18.30;99.90;;;;;;5047784;28;20116;-96
2021/11/13 09:25:37;;;;;;;11.23;9.82;;;20.50;99.90;;;;;;5029662;28;20074;-96
2021/11/13 09:28:03;;;;;;;12.43;10.60;;;21.40;99.90;;;;;;5047244;28;20461;-96
2021/11/13 09:30:31;;;;;;;12.05;10.48;;;22.30;99.90;;;;;;5048393;28;20035;-96
2021/11/13 09:32:58;;;;;;;13.40;12.00;;;18.10;99.90;;;;;;5050391;28;20044;-96
2021/11/13 09:35:24;;;;;;;13.48;11.65;;;15.60;99.90;;;;;;5052818;28;20029;-96
2021/11/13 09:37:51;;;;;;;14.57;13.02;;;13.60;99.90;;;;;;5048780;28;20029;-96
2021/11/13 09:40:19;;;;;;;14.52;12.32;;;12.10;99.90;;;;;;5047374;28;20033;-96
2021/11/13 09:42:47;;;;;;;13.77;12.38;;;10.80;99.90;;;;;;5030860;28;20505;-95
2021/11/13 09:45:14;;;;;;;14.00;12.45;;;10.30;99.90;;;;;;5049158;28;20033;-95
2021/11/13 09:47:45;;;;;;;12.93;11.63;;;10.40;99.90;;;;;;5036851;28;20061;-96
2021/11/13 09:50:11;;;;;;;14.65;12.43;;;10.20;99.90;;;;;;5044055;28;20036;-96
2021/11/13 09:52:38;;;;;;;13.40;11.82;;;10.30;99.90;;;;;;5030250;28;20067;-95
2021/11/13 09:55:06;;;;;;;14.10;12.25;;;10.50;99.90;;;;;;5047543;28;20040;-95
2021/11/13 09:57:32;;;;;;;15.07;12.73;;;10.20;99.90;;;;;;5048858;28;20022;-96
2021/11/13 09:59:58;;;;;;;14.07;12.57;;;9.60;99.90;;;;;;5052253;28;20075;-96
2021/11/13 10:02:24;;;;;;;15.50;12.95;;;9.40;99.90;;;;;;5049488;28;20052;-96
2021/11/13 10:04:49;;;;;;;15.57;12.85;;;9.20;99.90;;;;;;5037859;28;20059;-96
2021/11/13 10:07:15;;;;;;;16.15;12.68;;;9.10;99.90;;;;;;5032162;28;20031;-95
2021/11/13 10:09:41;;;;;;;14.88;12.45;;;9.50;99.90;;;;;;5028477;28;20066;-96
2021/11/13 10:12:07;;;;;;;17.20;12.95;;;9.50;99.90;;;;;;5033187;28;20446;-96
2021/11/13 10:14:33;;;;;;;17.10;13.32;;;9.20;99.90;;;;;;5035455;28;20040;-96
2021/11/13 10:16:59;;;;;;;16.23;12.95;;;9.30;99.90;;;;;;5046861;28;20673;-96
2021/11/13 10:19:26;;;;;;;17.15;13.40;;;9.60;99.90;;;;;;5044448;28;20378;-96
2021/11/13 10:21:56;;;;;;;16.35;13.23;;;9.00;99.90;;;;;;5030101;28;20066;-96
2021/11/13 10:24:28;;;;;;;16.02;12.80;;;8.80;99.90;;;;;;5045788;28;20037;-96
2021/11/13 10:26:58;;;;;;;14.70;11.75;;;8.80;99.90;;;;;;5035118;28;20021;-96
2021/11/13 10:29:30;;;;;;;15.18;12.05;;;8.80;99.90;;;;;;5033599;28;20025;-96
2021/11/13 10:31:59;;;;;;;17.23;12.50;;;8.70;99.90;;;;;;5030218;28;20079;-96
2021/11/13 10:34:32;;;;;;;14.93;11.05;;;8.70;99.90;;;;;;5025580;28;20025;-96
2021/11/13 10:37:04;;;;;;;13.35;11.45;;;8.70;99.90;;;;;;5025783;28;20040;-96
2021/11/13 10:39:34;;;;;;;13.32;11.00;;;9.10;99.90;;;;;;5028785;28;20065;-96
2021/11/13 10:42:04;;;;;;;14.45;12.15;;;9.70;99.90;;;;;;5033456;28;20033;-96
2021/11/13 10:44:54;;;;;;;13.95;12.23;;;9.70;99.90;;;;;;5035494;28;20022;-96
2021/11/13 10:47:23;;;;;;;14.77;12.50;;;10.20;99.90;;;;;;5031323;28;20033;-95
2021/11/13 10:49:52;;;;;;;15.38;12.60;;;10.60;99.90;;;;;;5045914;28;20029;-96
2021/11/13 10:52:20;;;;;;;17.67;12.10;;;10.30;99.90;;;;;;5029190;28;20028;-96
2021/11/13 10:54:51;;;;;;;14.38;11.75;;;10.30;99.90;;;;;;5030004;28;20037;-95
2021/11/13 10:57:26;;;;;;;14.30;12.05;;;10.20;99.90;;;;;;5014647;28;20033;-95
2021/11/13 10:59:53;;;;;;;14.88;12.30;;;10.20;99.90;;;;;;5046933;28;20029;-95
2021/11/13 11:02:21;;;;;;;18.80;12.07;;;10.40;99.90;;;;;;5047448;28;20035;-94
2021/11/13 11:04:47;;;;;;;15.35;12.88;;;10.50;99.90;;;;;;5047217;28;20041;-95
2021/11/13 11:07:24;;;;;;;13.77;11.63;;;10.70;99.90;;;;;;5045674;28;20039;-96
2021/11/13 11:10:10;;;;;;;15.57;11.95;;;10.70;99.90;;;;;;5047108;28;20028;-95
2021/11/13 11:12:37;;;;;;;13.45;11.63;;;11.70;99.90;;;;;;5047185;28;20022;-96
2021/11/13 11:15:12;;;;;;;14.80;12.13;;;15.00;99.90;;;;;;5049302;28;20033;-96
2021/11/13 11:17:39;;;;;;;15.40;12.23;;;14.30;99.90;;;;;;5052314;28;20021;-96
2021/11/13 11:20:09;;;;;;;16.05;11.98;;;14.30;99.90;;;;;;5046207;28;20041;-96
2021/11/13 11:22:35;;;;;;;16.33;13.05;;;17.30;99.90;;;;;;5027742;28;20021;-96
2021/11/13 11:25:04;;;;;;;15.30;12.60;;;15.30;99.90;;;;;;5028319;28;20478;-96
2021/11/13 11:27:34;;;;;;;15.20;12.45;;;14.20;99.90;;;;;;5047382;28;20025;-96
2021/11/13 11:30:19;;;;;;;14.95;12.70;;;13.30;99.90;;;;;;5049952;28;20033;-95
2021/11/13 11:32:57;;;;;;;16.52;12.82;;;12.60;99.90;;;;;;5044838;28;20409;-96
2021/11/13 11:35:40;;;;;;;15.27;12.68;;;12.70;99.90;;;;;;5048727;28;20040;-96
2021/11/13 11:38:12;;;;;;;16.95;12.73;;;13.70;99.90;;;;;;5046878;28;20036;-96
2021/11/13 11:40:44;;;;;;;13.60;12.13;;;17.60;99.90;;;;;;5047291;28;20036;-96
2021/11/13 11:43:11;;;;;;;13.55;11.93;;;17.30;99.90;;;;;;5046892;28;20025;-96
2021/11/13 11:45:40;;;;;;;14.98;12.77;;;20.30;99.90;;;;;;5046950;28;20493;-96
2021/11/13 11:48:09;;;;;;;16.25;13.05;;;21.90;99.90;;;;;;5030858;28;20134;-96
2021/11/13 11:50:38;;;;;;;13.45;11.82;;;23.90;99.90;;;;;;5051120;28;20032;-96
2021/11/13 11:53:10;;;;;;;16.20;13.27;;;24.50;99.90;;;;;;5047096;28;20040;-96
2021/11/13 11:55:37;;;;;;;14.85;13.25;;;22.30;99.90;;;;;;5042253;28;20051;-95
2021/11/13 11:58:09;;;;;;;14.85;13.25;;;22.90;99.90;;;;;;5045452;28;20025;-95
2021/11/13 12:00:37;;;;;;;18.15;13.98;;;23.90;99.90;;;;;;5045164;28;20048;-95
2021/11/13 12:03:05;;;;;;;17.27;14.98;;;23.90;99.90;;;;;;5048736;28;20039;-96
2021/11/13 12:05:35;;;;;;;15.57;13.90;;;24.70;99.90;;;;;;5051188;28;20060;-95
2021/11/13 12:08:21;;;;;;;16.38;14.68;;;24.40;99.90;;;;;;5046790;28;20033;-94
2021/11/13 12:10:48;;;;;;;16.00;14.40;;;22.70;99.90;;;;;;5046329;28;20029;-94
2021/11/13 12:13:25;;;;;;;14.90;13.32;;;25.20;99.90;;;;;;5046417;28;20140;-94
2021/11/13 12:15:56;;;;;;;15.38;13.90;;;26.00;99.90;;;;;;5046301;28;20033;-94
2021/11/13 12:18:30;;;;;;;15.00;13.50;;;25.90;99.90;;;;;;5046969;28;20080;-94
2021/11/13 12:21:01;;;;;;;15.15;13.57;;;25.70;99.90;;;;;;5054910;28;20068;-94
2021/11/13 12:23:35;;;;;;;15.07;13.55;;;26.50;99.90;;;;;;5053818;28;20052;-94
2021/11/13 12:26:03;;;;;;;15.80;13.98;;;27.70;99.90;;;;;;5050009;28;20032;-95
2021/11/13 12:28:30;;;;;;;15.73;13.68;;;24.10;99.90;;;;;;5046114;28;20037;-94
2021/11/13 12:31:05;;;;;;;14.35;12.60;;;23.50;99.90;;;;;;5048357;28;20544;-94
2021/11/13 12:33:30;;;;;;;17.17;14.15;;;23.60;99.90;;;;;;5049510;28;20132;-95
2021/11/13 12:36:01;;;;;;;13.73;12.13;;;21.90;99.90;;;;;;5053692;28;20033;-95